Time;durP1;ratioP1;P1;durP2;ratioP2;P2;SDS_P1;SDS_P2;PMS_P1;PMS_P2;Temp;Humidity;BMP_temperature;BMP_pressure;BME280_temperature;BME280_humidity;BME280_pressure;Samples;Min_cycle;Max_cycle;Signal;HPM_P1;HPM_P2
2022/10/22 00:02:04;;;;;;;4.32;2.58;;;15.40;88.00;;;;;;5001946;28;20412;-68
2022/10/22 00:04:30;;;;;;;4.20;2.40;;;15.40;88.20;;;;;;5003483;28;20054;-68
2022/10/22 00:06:56;;;;;;;3.97;2.13;;;15.30;88.10;;;;;;5010772;28;20056;-67
2022/10/22 00:09:21;;;;;;;3.13;2.10;;;15.30;88.20;;;;;;4996030;28;20029;-68
2022/10/22 00:11:47;;;;;;;3.08;2.00;;;15.40;88.20;;;;;;4999696;28;20022;-68
2022/10/22 00:14:12;;;;;;;5.03;1.98;;;15.40;88.20;;;;;;5000595;28;20022;-68
2022/10/22 00:16:38;;;;;;;2.20;1.80;;;15.30;88.10;;;;;;5006704;28;20034;-67
2022/10/22 00:19:04;;;;;;;2.45;1.98;;;15.40;88.20;;;;;;4995021;28;20033;-69
2022/10/22 00:21:29;;;;;;;2.95;1.90;;;15.30;88.10;;;;;;5006688;28;20030;-68
2022/10/22 00:23:55;;;;;;;3.10;1.90;;;15.40;88.10;;;;;;5000289;28;20025;-67
2022/10/22 00:26:22;;;;;;;4.50;2.53;;;15.40;88.10;;;;;;4998166;28;20441;-69
2022/10/22 00:28:47;;;;;;;3.80;2.50;;;15.40;88.00;;;;;;5005933;28;20022;-68
2022/10/22 00:31:14;;;;;;;3.67;2.28;;;15.30;88.10;;;;;;4994592;28;20129;-68
2022/10/22 00:33:40;;;;;;;3.35;2.35;;;15.30;88.10;;;;;;5004147;28;20102;-68
2022/10/22 00:36:07;;;;;;;3.72;1.98;;;15.30;88.20;;;;;;5007575;28;20041;-68
2022/10/22 00:38:32;;;;;;;3.22;2.13;;;15.30;88.20;;;;;;4997404;28;20042;-69
2022/10/22 00:40:58;;;;;;;2.88;2.10;;;15.20;88.30;;;;;;5007995;28;20033;-68
2022/10/22 00:43:23;;;;;;;3.88;2.20;;;15.30;88.30;;;;;;5006584;28;20049;-68
2022/10/22 00:45:49;;;;;;;3.40;2.17;;;15.30;88.30;;;;;;4999030;28;20036;-67
2022/10/22 00:48:23;;;;;;;2.20;1.90;;;15.30;88.20;;;;;;4999187;28;20037;-69
2022/10/22 00:50:49;;;;;;;3.92;2.20;;;15.30;88.20;;;;;;5005616;28;20033;-68
2022/10/22 00:53:20;;;;;;;2.88;2.03;;;15.30;88.20;;;;;;4994569;28;20014;-69
2022/10/22 00:55:50;;;;;;;3.15;2.25;;;15.30;88.10;;;;;;5001193;28;20025;-68
2022/10/22 00:58:17;;;;;;;2.83;2.08;;;15.30;88.10;;;;;;5001168;28;20574;-70
2022/10/22 01:00:43;;;;;;;4.30;2.75;;;15.30;88.10;;;;;;4994102;28;20022;-67
2022/10/22 01:03:09;;;;;;;3.53;2.30;;;15.30;88.00;;;;;;5007065;28;20022;-69
2022/10/22 01:05:55;;;;;;;4.82;2.53;;;15.20;88.10;;;;;;4996874;28;20018;-69
2022/10/22 01:08:59;;;;;;;3.30;2.65;;;15.30;88.10;;;;;;4998628;28;20032;-67
2022/10/22 01:11:30;;;;;;;2.92;2.30;;;15.20;88.10;;;;;;4995404;28;20101;-68
2022/10/22 01:14:02;;;;;;;4.63;2.60;;;15.20;88.10;;;;;;5001701;28;20022;-68
2022/10/22 01:16:40;;;;;;;5.47;2.28;;;15.20;88.10;;;;;;5003961;28;20056;-67
2022/10/22 01:19:18;;;;;;;5.03;2.60;;;15.10;88.00;;;;;;4994137;28;20109;-67
2022/10/22 01:21:49;;;;;;;2.92;2.45;;;15.10;88.10;;;;;;5003625;28;20036;-68
2022/10/22 01:24:32;;;;;;;3.07;2.43;;;15.10;88.20;;;;;;5002110;28;20690;-68
2022/10/22 01:27:07;;;;;;;3.78;2.40;;;15.00;88.10;;;;;;4994218;28;20273;-68
2022/10/22 01:29:47;;;;;;;3.33;2.38;;;15.10;88.10;;;;;;5004436;28;20015;-67
2022/10/22 01:32:17;;;;;;;3.05;2.60;;;15.00;88.60;;;;;;5001597;28;20129;-67
2022/10/22 01:34:55;;;;;;;4.82;2.47;;;15.00;87.90;;;;;;4994858;28;20029;-67
2022/10/22 01:37:24;;;;;;;3.20;2.60;;;15.00;87.90;;;;;;4995027;28;20022;-69
2022/10/22 01:39:50;;;;;;;3.60;2.72;;;15.00;87.90;;;;;;5002533;28;20104;-68
2022/10/22 01:42:16;;;;;;;3.25;2.60;;;14.90;87.90;;;;;;5002465;28;20025;-68
2022/10/22 01:44:42;;;;;;;3.92;3.08;;;14.90;87.90;;;;;;4995463;28;20500;-68
2022/10/22 01:47:19;;;;;;;3.67;2.90;;;14.90;88.00;;;;;;5006284;28;20037;-67
2022/10/22 01:49:47;;;;;;;5.05;2.72;;;14.90;88.00;;;;;;4997342;28;20046;-69
2022/10/22 01:52:49;;;;;;;4.22;2.95;;;14.80;88.00;;;;;;4998666;28;20130;-67
2022/10/22 01:55:51;;;;;;;4.22;3.22;;;14.80;88.10;;;;;;5004840;28;20093;-68
2022/10/22 01:58:36;;;;;;;3.53;2.50;;;14.70;88.20;;;;;;5000351;28;20034;-69
2022/10/22 02:01:25;;;;;;;4.30;3.20;;;14.60;88.10;;;;;;4993115;28;20037;-68
2022/10/22 02:04:12;;;;;;;5.30;2.50;;;14.60;88.10;;;;;;5000410;28;20399;-68
2022/10/22 02:06:40;;;;;;;6.55;3.67;;;14.60;88.80;;;;;;5004289;28;20033;-68
2022/10/22 02:09:08;;;;;;;4.35;3.40;;;14.50;88.30;;;;;;4995376;28;20038;-67
2022/10/22 02:11:33;;;;;;;5.00;2.72;;;14.50;88.60;;;;;;4995244;28;20029;-67
2022/10/22 02:14:03;;;;;;;6.80;3.28;;;14.40;88.60;;;;;;5000297;28;20045;-68
2022/10/22 02:16:49;;;;;;;3.80;2.92;;;14.40;89.40;;;;;;5001471;28;20033;-69
2022/10/22 02:19:34;;;;;;;4.18;3.13;;;14.40;88.90;;;;;;4993008;28;20037;-67
2022/10/22 02:22:00;;;;;;;5.43;3.05;;;14.30;89.10;;;;;;4998645;28;20018;-68
2022/10/22 02:24:25;;;;;;;4.93;3.20;;;14.40;89.10;;;;;;5001577;28;20026;-69
2022/10/22 02:27:06;;;;;;;4.43;3.00;;;14.30;89.10;;;;;;5007638;28;20822;-66
2022/10/22 02:29:40;;;;;;;4.25;3.13;;;14.40;89.10;;;;;;5004138;28;20026;-68
2022/10/22 02:32:10;;;;;;;3.80;2.90;;;14.40;89.10;;;;;;4999460;28;20150;-69
2022/10/22 02:34:35;;;;;;;4.43;2.90;;;14.40;89.00;;;;;;5009467;28;20026;-68
2022/10/22 02:37:03;;;;;;;4.88;3.40;;;14.40;89.00;;;;;;4993150;28;20022;-67
2022/10/22 02:39:31;;;;;;;6.18;3.65;;;14.40;88.90;;;;;;5004800;28;20081;-69
2022/10/22 02:41:56;;;;;;;5.13;3.20;;;14.40;88.90;;;;;;4998691;28;20083;-68
2022/10/22 02:44:23;;;;;;;4.97;3.10;;;14.40;88.90;;;;;;4995022;28;20019;-68
2022/10/22 02:46:49;;;;;;;4.85;2.80;;;14.40;89.00;;;;;;4989808;28;20027;-68
2022/10/22 02:49:15;;;;;;;4.55;3.10;;;14.40;89.00;;;;;;4998064;28;20037;-68
2022/10/22 02:51:40;;;;;;;4.82;2.78;;;14.40;88.90;;;;;;4996431;28;20110;-68
2022/10/22 02:54:06;;;;;;;4.57;3.22;;;14.40;89.00;;;;;;5005667;28;20034;-67
2022/10/22 02:56:31;;;;;;;3.63;2.80;;;14.40;89.10;;;;;;4993300;28;20014;-66
2022/10/22 02:58:57;;;;;;;6.78;3.08;;;14.40;89.20;;;;;;5008943;28;20033;-68
2022/10/22 03:01:23;;;;;;;4.68;3.00;;;14.40;89.20;;;;;;5009039;28;20084;-67
2022/10/22 03:03:48;;;;;;;6.95;3.50;;;14.40;89.10;;;;;;5008760;28;20052;-67
2022/10/22 03:06:14;;;;;;;4.82;3.15;;;14.40;89.10;;;;;;5009130;28;20061;-67
2022/10/22 03:08:40;;;;;;;5.28;3.20;;;14.40;89.20;;;;;;5008718;28;20034;-67
2022/10/22 03:11:06;;;;;;;4.22;2.88;;;14.40;89.30;;;;;;5009071;28;20091;-68
2022/10/22 03:13:31;;;;;;;7.00;3.47;;;14.40;89.20;;;;;;5008957;28;20026;-68
2022/10/22 03:15:57;;;;;;;5.80;2.90;;;14.30;89.20;;;;;;5007630;28;20037;-67
2022/10/22 03:18:22;;;;;;;4.88;3.08;;;14.30;89.30;;;;;;5009143;28;20033;-69
2022/10/22 03:20:48;;;;;;;5.32;3.25;;;14.30;89.30;;;;;;5011649;28;20025;-69
2022/10/22 03:23:18;;;;;;;4.80;3.13;;;14.40;89.40;;;;;;5012653;28;20029;-69
2022/10/22 03:25:47;;;;;;;4.45;3.22;;;14.40;89.40;;;;;;5012629;28;20540;-68
2022/10/22 03:28:14;;;;;;;4.88;3.00;;;14.40;89.40;;;;;;5012346;28;20032;-68
2022/10/22 03:30:40;;;;;;;4.50;2.90;;;14.40;89.40;;;;;;5012194;28;20018;-66
2022/10/22 03:33:05;;;;;;;4.38;3.25;;;14.40;89.30;;;;;;5012391;28;20026;-68
2022/10/22 03:35:38;;;;;;;4.40;3.15;;;14.30;89.20;;;;;;5012269;28;20073;-67
2022/10/22 03:38:03;;;;;;;4.43;3.25;;;14.30;89.30;;;;;;5012404;28;20033;-68
2022/10/22 03:40:29;;;;;;;4.90;3.08;;;14.30;89.30;;;;;;5012064;28;20049;-68
2022/10/22 03:42:54;;;;;;;4.28;3.20;;;14.30;89.30;;;;;;5012255;28;20053;-68
2022/10/22 03:45:20;;;;;;;4.00;2.97;;;14.30;89.40;;;;;;5010257;28;20843;-69
2022/10/22 03:47:45;;;;;;;4.00;2.65;;;14.30;89.50;;;;;;5011773;28;20017;-67
2022/10/22 03:50:11;;;;;;;4.07;2.78;;;14.30;89.40;;;;;;5011781;28;20481;-68
2022/10/22 03:52:38;;;;;;;5.45;2.88;;;14.30;89.40;;;;;;5010402;28;20014;-67
2022/10/22 03:55:05;;;;;;;4.10;3.10;;;14.30;89.30;;;;;;5011884;28;20093;-67
2022/10/22 03:57:30;;;;;;;4.57;2.47;;;14.30;89.30;;;;;;5011272;28;20489;-67
2022/10/22 03:59:56;;;;;;;3.05;2.35;;;14.30;89.40;;;;;;5011921;28;20036;-67
2022/10/22 04:02:21;;;;;;;7.40;2.95;;;14.30;89.40;;;;;;5011756;28;20030;-67
2022/10/22 04:04:47;;;;;;;4.38;2.72;;;14.30;89.30;;;;;;5011931;28;20022;-67
2022/10/22 04:07:12;;;;;;;4.05;2.72;;;14.20;89.30;;;;;;5011489;28;20030;-67
2022/10/22 04:09:38;;;;;;;6.32;3.05;;;14.20;89.20;;;;;;5010456;28;20049;-68
2022/10/22 04:12:06;;;;;;;4.25;2.72;;;14.20;89.20;;;;;;5011503;28;20038;-67
2022/10/22 04:14:32;;;;;;;5.30;3.00;;;14.20;89.30;;;;;;5010303;28;20068;-68
2022/10/22 04:16:58;;;;;;;4.47;2.58;;;14.20;89.30;;;;;;5011501;28;20037;-67
2022/10/22 04:19:23;;;;;;;5.20;2.80;;;14.20;89.20;;;;;;5010694;28;20353;-67
2022/10/22 04:21:49;;;;;;;3.95;2.90;;;14.20;89.20;;;;;;5011066;28;20022;-67
2022/10/22 04:24:14;;;;;;;3.72;2.50;;;14.10;89.20;;;;;;5012158;28;20100;-67
2022/10/22 04:26:40;;;;;;;4.65;2.50;;;14.10;89.20;;;;;;5012269;28;20053;-68
2022/10/22 04:29:06;;;;;;;5.10;2.80;;;14.10;89.20;;;;;;5011474;28;20034;-67
2022/10/22 04:31:32;;;;;;;4.90;2.60;;;14.00;89.30;;;;;;5012122;28;20386;-68
2022/10/22 04:33:59;;;;;;;4.78;2.97;;;14.00;89.40;;;;;;5011809;28;20021;-66
2022/10/22 04:36:25;;;;;;;5.65;3.00;;;14.00;89.40;;;;;;5011803;28;20030;-68
2022/10/22 04:38:54;;;;;;;5.65;3.40;;;14.00;89.60;;;;;;5011601;28;20029;-68
2022/10/22 04:41:22;;;;;;;5.07;3.30;;;14.00;89.80;;;;;;5011824;28;20061;-68
2022/10/22 04:43:48;;;;;;;3.67;2.85;;;14.00;90.00;;;;;;5011756;28;20034;-68
2022/10/22 04:46:16;;;;;;;4.32;2.50;;;14.00;90.00;;;;;;5011909;28;20026;-67
2022/10/22 04:48:42;;;;;;;4.72;3.10;;;14.10;90.10;;;;;;5011826;28;20049;-68
2022/10/22 04:51:10;;;;;;;4.72;2.83;;;14.10;90.10;;;;;;5010433;28;20022;-68
2022/10/22 04:53:36;;;;;;;6.03;3.05;;;14.10;90.10;;;;;;5010613;28;20017;-69
2022/10/22 04:56:15;;;;;;;6.43;3.33;;;14.10;90.20;;;;;;5011371;28;20029;-68
2022/10/22 04:58:42;;;;;;;6.70;2.97;;;14.10;90.20;;;;;;5011239;28;20037;-68
2022/10/22 05:01:14;;;;;;;4.72;2.60;;;14.20;90.20;;;;;;5010941;28;20423;-68
2022/10/22 05:03:39;;;;;;;4.00;2.50;;;14.20;90.20;;;;;;5011112;28;20076;-67
2022/10/22 05:06:06;;;;;;;3.55;2.55;;;14.20;90.20;;;;;;5010776;28;20268;-67
2022/10/22 05:08:32;;;;;;;4.78;2.58;;;14.20;90.20;;;;;;5011341;28;20550;-67
2022/10/22 05:10:57;;;;;;;8.40;3.25;;;14.20;90.20;;;;;;5011181;28;20026;-68
2022/10/22 05:13:23;;;;;;;6.00;3.53;;;14.20;90.50;;;;;;5011428;28;20069;-68
2022/10/22 05:15:48;;;;;;;3.78;2.63;;;14.20;90.30;;;;;;5011124;28;20026;-68
2022/10/22 05:18:14;;;;;;;4.53;2.95;;;14.20;90.30;;;;;;5009943;28;20393;-68
2022/10/22 05:20:40;;;;;;;7.07;4.10;;;14.20;90.40;;;;;;5011183;28;20519;-67
2022/10/22 05:23:06;;;;;;;8.20;3.92;;;14.20;90.50;;;;;;5010832;28;20519;-67
2022/10/22 05:25:35;;;;;;;6.60;3.92;;;14.20;90.80;;;;;;5011184;28;20018;-68
2022/10/22 05:28:00;;;;;;;6.05;3.83;;;14.30;90.90;;;;;;5010468;28;20030;-68
2022/10/22 05:30:26;;;;;;;7.50;3.83;;;14.30;90.90;;;;;;5011060;28;20029;-68
2022/10/22 05:32:51;;;;;;;7.53;2.95;;;14.30;91.00;;;;;;5010254;28;20029;-68
2022/10/22 05:35:17;;;;;;;8.18;3.72;;;14.30;90.90;;;;;;5008878;28;20010;-67
2022/10/22 05:37:42;;;;;;;7.10;3.33;;;14.30;90.90;;;;;;5009809;28;20108;-66
2022/10/22 05:40:08;;;;;;;7.15;3.10;;;14.30;91.00;;;;;;5009833;28;20026;-67
2022/10/22 05:42:34;;;;;;;8.65;4.00;;;14.30;91.00;;;;;;5009345;28;20041;-66
2022/10/22 05:44:59;;;;;;;5.70;3.17;;;14.30;91.00;;;;;;5009853;28;20022;-69
2022/10/22 05:47:27;;;;;;;8.52;4.25;;;14.30;91.10;;;;;;5009668;28;20030;-68
2022/10/22 05:49:56;;;;;;;7.43;3.00;;;14.30;91.10;;;;;;5009801;28;20028;-67
2022/10/22 05:52:21;;;;;;;6.43;3.30;;;14.30;91.20;;;;;;5009974;28;20021;-67
2022/10/22 05:54:47;;;;;;;6.05;3.33;;;14.20;91.10;;;;;;5009777;28;20025;-68
2022/10/22 05:57:13;;;;;;;6.28;2.90;;;14.30;91.10;;;;;;5009854;28;20064;-67
2022/10/22 05:59:38;;;;;;;6.03;2.67;;;14.30;91.10;;;;;;5009666;28;20064;-67
2022/10/22 06:02:04;;;;;;;6.63;3.17;;;14.30;91.10;;;;;;5009223;28;20030;-67
2022/10/22 06:04:29;;;;;;;5.53;2.60;;;14.30;91.10;;;;;;5008871;28;20433;-68
2022/10/22 06:06:55;;;;;;;5.35;3.25;;;14.30;91.10;;;;;;5006617;28;20024;-67
2022/10/22 06:09:34;;;;;;;5.80;3.00;;;14.30;91.10;;;;;;5009495;28;20084;-68
2022/10/22 06:12:00;;;;;;;4.22;2.83;;;14.20;91.10;;;;;;5009845;28;20029;-68
2022/10/22 06:14:27;;;;;;;5.30;3.10;;;14.30;91.10;;;;;;5009539;28;20021;-68
2022/10/22 06:16:53;;;;;;;8.55;3.20;;;14.30;91.20;;;;;;5009776;28;20037;-67
2022/10/22 06:19:21;;;;;;;5.80;3.70;;;14.30;91.10;;;;;;5009220;28;20400;-67
2022/10/22 06:21:47;;;;;;;6.28;3.10;;;14.30;91.20;;;;;;5009763;28;20022;-68
2022/10/22 06:24:13;;;;;;;5.75;3.40;;;14.30;91.20;;;;;;5009720;28;20681;-68
2022/10/22 06:26:38;;;;;;;7.57;3.30;;;14.30;91.20;;;;;;5009339;28;20026;-68
2022/10/22 06:29:04;;;;;;;7.28;3.38;;;14.40;91.20;;;;;;5009582;28;20474;-68
2022/10/22 06:31:35;;;;;;;7.85;3.10;;;14.40;91.20;;;;;;5009415;28;20580;-67
2022/10/22 06:34:02;;;;;;;5.87;3.17;;;14.40;91.10;;;;;;5009589;28;20101;-68
2022/10/22 06:36:29;;;;;;;9.32;3.20;;;14.50;91.20;;;;;;5009658;28;20029;-68
2022/10/22 06:38:55;;;;;;;6.05;3.35;;;14.50;91.20;;;;;;5009475;28;20037;-68
2022/10/22 06:41:22;;;;;;;6.40;3.20;;;14.50;91.20;;;;;;5009259;28;20034;-68
2022/10/22 06:43:47;;;;;;;5.75;2.90;;;14.60;91.20;;;;;;5008319;28;20388;-68
2022/10/22 06:46:15;;;;;;;6.47;3.42;;;14.60;91.20;;;;;;5009264;28;20021;-69
2022/10/22 06:48:41;;;;;;;6.32;2.88;;;14.60;91.20;;;;;;5009361;28;20048;-68
2022/10/22 06:51:09;;;;;;;5.68;3.20;;;14.70;91.10;;;;;;5009352;28;20484;-67
2022/10/22 06:53:36;;;;;;;7.05;3.15;;;14.70;91.10;;;;;;5009293;28;20022;-68
2022/10/22 06:56:13;;;;;;;6.93;3.42;;;14.70;91.10;;;;;;5012696;28;20029;-68
2022/10/22 06:58:39;;;;;;;6.20;3.20;;;14.70;91.10;;;;;;5012978;28;20030;-67
2022/10/22 07:01:08;;;;;;;8.05;3.40;;;14.70;91.10;;;;;;5011628;28;20116;-66
2022/10/22 07:03:33;;;;;;;6.65;3.53;;;14.70;91.10;;;;;;5024866;28;20384;-68
2022/10/22 07:06:01;;;;;;;7.22;4.05;;;14.70;91.10;;;;;;5033553;28;20025;-67
2022/10/22 07:08:27;;;;;;;5.78;3.30;;;14.70;91.10;;;;;;5033339;28;20022;-69
2022/10/22 07:10:52;;;;;;;7.72;3.15;;;14.70;91.10;;;;;;5033599;28;20104;-69
2022/10/22 07:13:18;;;;;;;7.72;2.83;;;14.80;91.10;;;;;;5032807;28;20100;-68
2022/10/22 07:15:43;;;;;;;7.57;3.28;;;14.90;91.00;;;;;;5033051;28;20365;-67
2022/10/22 07:18:09;;;;;;;8.45;2.80;;;15.00;90.90;;;;;;5032654;28;20535;-67
2022/10/22 07:20:34;;;;;;;4.88;2.75;;;15.10;90.80;;;;;;5013150;28;20026;-68
2022/10/22 07:23:00;;;;;;;8.10;3.15;;;15.10;90.70;;;;;;5001358;28;20030;-68
2022/10/22 07:25:25;;;;;;;8.27;3.33;;;15.10;90.70;;;;;;5003130;28;20025;-66
2022/10/22 07:27:51;;;;;;;7.90;3.70;;;15.20;90.60;;;;;;5003138;28;20032;-69
2022/10/22 07:30:17;;;;;;;6.68;3.08;;;15.20;90.50;;;;;;5004397;28;20041;-69
2022/10/22 07:32:42;;;;;;;7.60;3.60;;;15.20;90.60;;;;;;5001018;28;20022;-68
2022/10/22 07:35:08;;;;;;;7.72;3.03;;;15.20;90.50;;;;;;5001347;28;20097;-67
2022/10/22 07:37:34;;;;;;;5.03;2.60;;;15.20;90.50;;;;;;5002597;28;20464;-67
2022/10/22 07:40:00;;;;;;;5.78;2.97;;;15.20;90.50;;;;;;5000992;28;20022;-68
2022/10/22 07:42:25;;;;;;;5.03;2.72;;;15.30;90.50;;;;;;5003006;28;20026;-69
2022/10/22 07:44:51;;;;;;;6.32;3.30;;;15.30;90.50;;;;;;5002103;28;20540;-69
2022/10/22 07:47:16;;;;;;;8.43;3.53;;;15.30;90.40;;;;;;5001482;28;20029;-69
2022/10/22 07:49:42;;;;;;;8.52;3.42;;;15.30;90.40;;;;;;5003450;28;20097;-69
2022/10/22 07:52:08;;;;;;;6.32;3.15;;;15.40;90.40;;;;;;5000792;28;20030;-68
2022/10/22 07:54:34;;;;;;;6.95;3.70;;;15.40;90.40;;;;;;5000592;28;20448;-67
2022/10/22 07:56:59;;;;;;;7.75;2.80;;;15.40;90.30;;;;;;5001866;28;20034;-69
2022/10/22 07:59:25;;;;;;;5.10;2.40;;;15.50;90.20;;;;;;5004459;28;20031;-68
2022/10/22 08:01:51;;;;;;;6.68;2.60;;;15.50;90.20;;;;;;5001804;28;20422;-68
2022/10/22 08:04:16;;;;;;;6.18;2.78;;;15.60;90.20;;;;;;4995762;28;20026;-69
2022/10/22 08:06:42;;;;;;;5.40;2.20;;;15.60;90.10;;;;;;5008615;28;20033;-69
2022/10/22 08:09:07;;;;;;;5.32;2.30;;;15.70;90.00;;;;;;4996867;28;20026;-69
2022/10/22 08:11:33;;;;;;;7.35;2.90;;;15.70;90.00;;;;;;5005704;28;20129;-68
2022/10/22 08:13:59;;;;;;;12.63;4.60;;;15.80;89.80;;;;;;4999496;28;20046;-69
2022/10/22 08:16:24;;;;;;;6.10;3.05;;;15.80;89.20;;;;;;5012725;28;20113;-69
2022/10/22 08:18:50;;;;;;;12.15;3.70;;;15.80;89.20;;;;;;4996644;28;20045;-69
2022/10/22 08:21:16;;;;;;;8.82;3.17;;;15.90;89.10;;;;;;5012200;28;20544;-68
2022/10/22 08:23:42;;;;;;;8.75;3.00;;;15.90;88.70;;;;;;5005674;28;20543;-69
2022/10/22 08:26:08;;;;;;;8.02;3.20;;;16.00;88.60;;;;;;5004147;28;20064;-67
2022/10/22 08:28:35;;;;;;;5.53;2.58;;;16.00;88.40;;;;;;4994995;28;20018;-69
2022/10/22 08:31:02;;;;;;;7.68;3.10;;;16.00;88.30;;;;;;5008969;28;20076;-69
2022/10/22 08:33:28;;;;;;;7.22;3.72;;;16.00;88.30;;;;;;4998908;28;20025;-68
2022/10/22 08:35:53;;;;;;;8.13;2.90;;;16.00;88.10;;;;;;5010467;28;20088;-68
2022/10/22 08:38:19;;;;;;;7.95;3.30;;;16.00;88.10;;;;;;4998237;28;20082;-68
2022/10/22 08:40:50;;;;;;;5.18;2.42;;;16.00;88.10;;;;;;5008799;28;20025;-68
2022/10/22 08:43:43;;;;;;;4.10;2.10;;;16.00;88.10;;;;;;5005753;28;20073;-68
2022/10/22 08:46:40;;;;;;;5.97;2.35;;;16.10;88.00;;;;;;5004260;28;20033;-69
2022/10/22 08:49:17;;;;;;;8.70;2.85;;;16.10;87.90;;;;;;4995506;28;20493;-67
2022/10/22 08:51:43;;;;;;;8.57;2.80;;;16.20;87.60;;;;;;5001678;28;20027;-68
2022/10/22 08:54:23;;;;;;;8.98;2.63;;;16.30;87.50;;;;;;5004301;28;20030;-68
2022/10/22 08:57:07;;;;;;;7.38;2.50;;;16.30;87.30;;;;;;4995426;28;20032;-69
2022/10/22 08:59:45;;;;;;;5.68;2.20;;;16.40;87.20;;;;;;5004234;28;20034;-69
2022/10/22 09:02:49;;;;;;;5.93;2.50;;;16.50;87.00;;;;;;5004166;28;20030;-68
2022/10/22 09:05:26;;;;;;;7.20;2.40;;;16.50;86.70;;;;;;4995755;28;20041;-69
2022/10/22 09:07:53;;;;;;;7.63;2.33;;;16.50;86.70;;;;;;5001473;28;20037;-68
2022/10/22 09:10:24;;;;;;;7.45;2.40;;;16.50;86.60;;;;;;5005172;28;20112;-68
2022/10/22 09:12:50;;;;;;;7.38;2.35;;;16.50;86.50;;;;;;4995046;28;20557;-69
2022/10/22 09:15:18;;;;;;;5.60;2.10;;;16.50;86.40;;;;;;5006513;28;20042;-69
2022/10/22 09:18:05;;;;;;;6.22;1.80;;;16.60;86.40;;;;;;4999120;28;20038;-68
2022/10/22 09:20:57;;;;;;;7.00;2.20;;;16.60;86.30;;;;;;4996372;28;20030;-69
2022/10/22 09:23:31;;;;;;;5.47;2.20;;;16.50;86.10;;;;;;4997771;28;20029;-68
2022/10/22 09:25:58;;;;;;;4.50;1.83;;;16.50;86.20;;;;;;5001301;28;20076;-69
2022/10/22 09:28:24;;;;;;;4.07;1.85;;;16.60;86.40;;;;;;5005908;28;20025;-68
2022/10/22 09:30:49;;;;;;;4.10;1.67;;;16.60;86.40;;;;;;4994945;28;20023;-68
2022/10/22 09:33:19;;;;;;;4.97;2.50;;;16.70;86.30;;;;;;5006210;28;20401;-68
2022/10/22 09:35:54;;;;;;;6.75;1.88;;;16.60;86.20;;;;;;5000868;28;20026;-68
2022/10/22 09:38:30;;;;;;;7.32;2.47;;;16.60;86.30;;;;;;4997616;28;20169;-68
2022/10/22 09:40:58;;;;;;;3.75;1.83;;;16.50;86.20;;;;;;5008286;28;20018;-67
2022/10/22 09:43:24;;;;;;;5.07;1.70;;;16.50;86.40;;;;;;5008025;28;20045;-68
2022/10/22 09:45:59;;;;;;;5.55;1.98;;;16.60;86.50;;;;;;5000826;28;20560;-67
2022/10/22 09:48:30;;;;;;;6.40;1.90;;;16.60;86.50;;;;;;5005109;28;20088;-71
2022/10/22 09:51:17;;;;;;;6.78;1.88;;;16.60;86.40;;;;;;5008291;28;20024;-68
2022/10/22 09:53:45;;;;;;;5.70;1.90;;;16.70;86.40;;;;;;4998424;28;20105;-69
2022/10/22 09:56:27;;;;;;;4.57;1.70;;;16.70;86.40;;;;;;4998048;28;20029;-71
2022/10/22 09:58:55;;;;;;;6.03;1.90;;;16.80;86.30;;;;;;5007280;28;20033;-67
2022/10/22 10:01:26;;;;;;;4.55;1.85;;;16.80;86.10;;;;;;4996708;28;20036;-68
2022/10/22 10:03:52;;;;;;;4.40;1.77;;;16.80;85.80;;;;;;5000629;28;20026;-69
2022/10/22 10:06:20;;;;;;;6.55;2.00;;;16.90;85.70;;;;;;5004282;28;20029;-69
2022/10/22 10:08:47;;;;;;;5.38;2.00;;;16.90;85.50;;;;;;4994183;28;20035;-69
2022/10/22 10:11:21;;;;;;;6.07;1.80;;;16.90;85.30;;;;;;5006065;28;20022;-68
2022/10/22 10:14:05;;;;;;;10.32;3.40;;;17.00;85.30;;;;;;4999775;28;20562;-68
2022/10/22 10:16:46;;;;;;;7.55;2.17;;;17.00;84.80;;;;;;4995135;28;20497;-69
2022/10/22 10:19:27;;;;;;;5.03;1.80;;;17.00;84.90;;;;;;4994664;28;20029;-66
2022/10/22 10:22:26;;;;;;;4.75;1.70;;;17.10;84.90;;;;;;5000505;28;20520;-68
2022/10/22 10:25:16;;;;;;;4.90;1.65;;;17.10;84.90;;;;;;5006816;28;20092;-67
2022/10/22 10:28:00;;;;;;;6.53;1.90;;;17.20;84.90;;;;;;4998991;28;20492;-67
2022/10/22 10:30:26;;;;;;;5.55;2.28;;;17.20;84.70;;;;;;4999925;28;20023;-67
2022/10/22 10:33:15;;;;;;;7.53;2.28;;;17.20;84.20;;;;;;5010921;28;20075;-68
2022/10/22 10:35:40;;;;;;;5.85;2.20;;;17.20;84.20;;;;;;5002649;28;20036;-67
2022/10/22 10:38:27;;;;;;;6.38;2.00;;;17.30;84.30;;;;;;5002384;28;20097;-67
2022/10/22 10:41:05;;;;;;;6.72;2.55;;;17.30;84.30;;;;;;5010377;28;20511;-68
2022/10/22 10:43:54;;;;;;;5.65;2.40;;;17.30;84.00;;;;;;5001462;28;20112;-67
2022/10/22 10:46:30;;;;;;;6.35;2.00;;;17.30;84.10;;;;;;5000296;28;20030;-69
2022/10/22 10:49:08;;;;;;;5.55;2.33;;;17.20;84.20;;;;;;5010179;28;20026;-66
2022/10/22 10:51:55;;;;;;;4.63;2.10;;;17.30;84.30;;;;;;5000719;28;20105;-69
2022/10/22 10:54:38;;;;;;;11.48;3.72;;;17.30;84.20;;;;;;4999163;28;20397;-68
2022/10/22 10:57:34;;;;;;;4.78;2.20;;;17.40;83.80;;;;;;5009544;28;20030;-68
2022/10/22 11:00:21;;;;;;;8.10;2.42;;;17.40;84.20;;;;;;5003669;28;20052;-69
2022/10/22 11:03:13;;;;;;;10.45;3.15;;;17.60;83.50;;;;;;4996891;28;20038;-68
2022/10/22 11:06:07;;;;;;;7.68;3.30;;;17.70;83.00;;;;;;5005571;28;20029;-68
2022/10/22 11:08:44;;;;;;;9.57;3.20;;;17.80;82.40;;;;;;5008733;28;20030;-68
2022/10/22 11:11:21;;;;;;;10.52;3.40;;;17.80;81.90;;;;;;4997329;28;20018;-69
2022/10/22 11:13:49;;;;;;;8.38;2.88;;;17.80;81.40;;;;;;5004375;28;20393;-68
2022/10/22 11:16:36;;;;;;;5.90;2.97;;;17.90;81.40;;;;;;5006764;28;20149;-67
2022/10/22 11:19:21;;;;;;;6.68;2.67;;;18.00;81.20;;;;;;4996857;28;20503;-69
2022/10/22 11:22:03;;;;;;;6.57;2.80;;;18.20;81.00;;;;;;5004001;28;20045;-68
2022/10/22 11:24:34;;;;;;;6.00;2.25;;;18.30;80.30;;;;;;5008425;28;20030;-68
2022/10/22 11:27:24;;;;;;;5.60;2.10;;;18.40;80.30;;;;;;4997200;28;20026;-68
2022/10/22 11:29:56;;;;;;;8.43;3.10;;;18.50;80.00;;;;;;5003380;28;20084;-67
2022/10/22 11:32:25;;;;;;;5.90;2.25;;;18.50;79.30;;;;;;5007479;28;20037;-68
2022/10/22 11:34:56;;;;;;;9.00;2.53;;;18.60;79.20;;;;;;4996889;28;20014;-69
2022/10/22 11:37:26;;;;;;;6.53;1.98;;;18.60;78.60;;;;;;5007304;28;20022;-69
2022/10/22 11:39:56;;;;;;;4.15;1.70;;;18.60;78.40;;;;;;5002525;28;20026;-67
2022/10/22 11:42:37;;;;;;;5.65;1.55;;;18.50;78.10;;;;;;4999056;28;20053;-67
2022/10/22 11:45:05;;;;;;;4.95;1.88;;;18.60;78.20;;;;;;5009654;28;20050;-68
2022/10/22 11:47:50;;;;;;;4.80;1.70;;;18.70;78.00;;;;;;4999847;28;20034;-69
2022/10/22 11:50:24;;;;;;;3.88;1.58;;;18.70;77.90;;;;;;5000156;28;20034;-68
2022/10/22 11:53:04;;;;;;;10.40;2.33;;;18.80;77.80;;;;;;5009462;28;20465;-67
2022/10/22 11:55:47;;;;;;;4.82;1.67;;;18.70;76.80;;;;;;5000156;28;20499;-67
2022/10/22 11:58:29;;;;;;;5.97;1.80;;;18.70;77.10;;;;;;5012640;28;20037;-69
2022/10/22 12:00:55;;;;;;;;;;;18.70;77.10;;;;;;5009843;28;20034;-66
2022/10/22 12:03:39;;;;;;;5.15;1.80;;;18.70;77.00;;;;;;4999059;28;19956;-67
2022/10/22 12:06:11;;;;;;;8.30;2.05;;;18.70;76.90;;;;;;5002102;28;20033;-72
2022/10/22 12:08:51;;;;;;;8.90;1.95;;;18.60;76.70;;;;;;5004066;28;20041;-66
2022/10/22 12:11:40;;;;;;;5.93;1.60;;;18.60;76.60;;;;;;5006814;28;20022;-66
2022/10/22 12:14:28;;;;;;;6.88;2.05;;;18.60;76.60;;;;;;5007673;28;20037;-66
2022/10/22 12:16:57;;;;;;;8.05;2.35;;;18.50;76.30;;;;;;5009606;28;20480;-68
2022/10/22 12:19:34;;;;;;;5.78;2.05;;;18.50;76.60;;;;;;5011226;28;20022;-68
2022/10/22 12:22:13;;;;;;;6.78;1.70;;;18.40;76.60;;;;;;5012145;28;20030;-69
2022/10/22 12:24:43;;;;;;;4.45;1.55;;;18.50;76.80;;;;;;5011459;28;20032;-66
2022/10/22 12:27:33;;;;;;;6.63;1.90;;;18.70;76.80;;;;;;5011002;28;20532;-67
2022/10/22 12:30:00;;;;;;;6.55;1.80;;;19.00;76.40;;;;;;5012415;28;20072;-66
2022/10/22 12:32:36;;;;;;;5.28;1.63;;;19.00;75.70;;;;;;5012015;28;20477;-68
2022/10/22 12:35:13;;;;;;;8.43;1.83;;;19.20;75.70;;;;;;5012269;28;20021;-67
2022/10/22 12:37:38;;;;;;;7.10;1.70;;;19.10;75.40;;;;;;5011930;28;20515;-68
2022/10/22 12:40:25;;;;;;;6.55;1.50;;;19.10;75.50;;;;;;5012146;28;20034;-68
2022/10/22 12:42:55;;;;;;;6.50;1.70;;;19.00;75.60;;;;;;5011797;28;20405;-67
2022/10/22 12:45:24;;;;;;;5.53;1.48;;;18.90;75.80;;;;;;5011983;28;20516;-67
2022/10/22 12:47:55;;;;;;;4.18;1.48;;;18.90;76.10;;;;;;5011553;28;20105;-67
2022/10/22 12:50:50;;;;;;;4.47;1.40;;;18.80;76.20;;;;;;5012053;28;20025;-67
2022/10/22 12:53:26;;;;;;;5.22;1.77;;;18.80;76.30;;;;;;5012206;28;20073;-66
2022/10/22 12:55:54;;;;;;;7.50;1.98;;;18.80;76.20;;;;;;5011907;28;20033;-68
2022/10/22 12:58:25;;;;;;;8.73;2.08;;;18.80;76.20;;;;;;5011553;28;20030;-66
2022/10/22 13:00:56;;;;;;;5.18;1.50;;;18.90;76.10;;;;;;5011576;28;20962;-68
2022/10/22 13:03:43;;;;;;;9.80;1.77;;;19.10;75.90;;;;;;5011536;28;20033;-68
2022/10/22 13:06:17;;;;;;;6.80;1.50;;;19.40;75.00;;;;;;5011723;28;20029;-69
2022/10/22 13:09:03;;;;;;;6.80;1.90;;;19.70;74.30;;;;;;5006518;28;20034;-67